sensor_id;sensor_type;location;lat;lon;timestamp;pressure;altitude;pressure_sealevel;temperature;humidity
44734;BME280;30462;52.446;-1.930;2023-04-05T00:00:19;100876.5547;;;;
44734;BME280;30462;52.446;-1.930;2023-04-05T00:01:18;100875.3516;;;;
44734;BME280;30462;52.446;-1.930;2023-04-05T00:02:19;100871.5859;;;;
44734;BME280;30462;52.446;-1.930;2023-04-05T00:03:18;100870.9258;;;;
44734;BME280;30462;52.446;-1.930;2023-04-05T00:04:18;100875.2188;;;;
44734;BME280;30462;52.446;-1.930;2023-04-05T00:05:18;100869.5391;;;;
44734;BME280;30462;52.446;-1.930;2023-04-05T00:06:18;100865.3281;;;;
44734;BME280;30462;52.446;-1.930;2023-04-05T00:07:18;100869.6797;;;;
44734;BME280;30462;52.446;-1.930;2023-04-05T00:08:18;100871.7422;;;;
44734;BME280;30462;52.446;-1.930;2023-04-05T00:09:18;100871.6836;;;;
44734;BME280;30462;52.446;-1.930;2023-04-05T00:10:17;100869.9297;;;;
44734;BME280;30462;52.446;-1.930;2023-04-05T00:11:18;100869.2891;;;;
44734;BME280;30462;52.446;-1.930;2023-04-05T00:12:18;100872.4258;;;;
44734;BME280;30462;52.446;-1.930;2023-04-05T00:13:18;100872.3281;;;;
44734;BME280;30462;52.446;-1.930;2023-04-05T00:14:18;100869.9531;;;;
44734;BME280;30462;52.446;-1.930;2023-04-05T00:15:17;100870.625;;;;
44734;BME280;30462;52.446;-1.930;2023-04-05T00:16:18;100869.8047;;;;
44734;BME280;30462;52.446;-1.930;2023-04-05T00:17:17;100865.3984;;;;
44734;BME280;30462;52.446;-1.930;2023-04-05T00:18:18;100866.4453;;;;
44734;BME280;30462;52.446;-1.930;2023-04-05T00:19:18;100868.1289;;;;
44734;BME280;30462;52.446;-1.930;2023-04-05T00:20:18;100861.418;;;;
44734;BME280;30462;52.446;-1.930;2023-04-05T00:21:19;100861.2344;;;;
44734;BME280;30462;52.446;-1.930;2023-04-05T00:22:18;100858.0547;;;;
44734;BME280;30462;52.446;-1.930;2023-04-05T00:23:18;100855.1094;;;;
44734;BME280;30462;52.446;-1.930;2023-04-05T00:24:18;100856.8828;;;;
44734;BME280;30462;52.446;-1.930;2023-04-05T00:25:18;100855.0898;;;;
44734;BME280;30462;52.446;-1.930;2023-04-05T00:26:18;100853.8945;;;;
44734;BME280;30462;52.446;-1.930;2023-04-05T00:27:18;100852.1055;;;;
44734;BME280;30462;52.446;-1.930;2023-04-05T00:28:17;100849.3477;;;;
44734;BME280;30462;52.446;-1.930;2023-04-05T00:29:18;100849.7422;;;;
44734;BME280;30462;52.446;-1.930;2023-04-05T00:30:18;100848.7148;;;;
44734;BME280;30462;52.446;-1.930;2023-04-05T00:31:18;100850.1602;;;;
44734;BME280;30462;52.446;-1.930;2023-04-05T00:32:18;100849.4492;;;;
44734;BME280;30462;52.446;-1.930;2023-04-05T00:33:17;100851.5156;;;;
44734;BME280;30462;52.446;-1.930;2023-04-05T00:34:18;100848.168;;;;
44734;BME280;30462;52.446;-1.930;2023-04-05T00:35:17;100849.6172;;;;
44734;BME280;30462;52.446;-1.930;2023-04-05T00:36:18;100847.9805;;;;
44734;BME280;30462;52.446;-1.930;2023-04-05T00:37:18;100847.6992;;;;
44734;BME280;30462;52.446;-1.930;2023-04-05T00:38:18;100848.7656;;;;
44734;BME280;30462;52.446;-1.930;2023-04-05T00:39:18;100852.6875;;;;
44734;BME280;30462;52.446;-1.930;2023-04-05T00:40:18;100853.5547;;;;
44734;BME280;30462;52.446;-1.930;2023-04-05T00:41:18;100852.7539;;;;
44734;BME280;30462;52.446;-1.930;2023-04-05T00:42:18;100853.2773;;;;
44734;BME280;30462;52.446;-1.930;2023-04-05T00:43:18;100852.5938;;;;
44734;BME280;30462;52.446;-1.930;2023-04-05T00:44:18;100850.8477;;;;
44734;BME280;30462;52.446;-1.930;2023-04-05T00:45:18;100850.2578;;;;
44734;BME280;30462;52.446;-1.930;2023-04-05T00:46:18;100850.5;;;;
44734;BME280;30462;52.446;-1.930;2023-04-05T00:47:18;100853.332;;;;
44734;BME280;30462;52.446;-1.930;2023-04-05T00:48:17;100850.5547;;;;
44734;BME280;30462;52.446;-1.930;2023-04-05T00:49:17;100850.2695;;;;
44734;BME280;30462;52.446;-1.930;2023-04-05T00:50:18;100850.5234;;;;
44734;BME280;30462;52.446;-1.930;2023-04-05T00:51:18;100851.3633;;;;
44734;BME280;30462;52.446;-1.930;2023-04-05T00:52:18;100847.5625;;;;
44734;BME280;30462;52.446;-1.930;2023-04-05T00:53:18;100848.5313;;;;
44734;BME280;30462;52.446;-1.930;2023-04-05T00:54:18;100843.9727;;;;
44734;BME280;30462;52.446;-1.930;2023-04-05T00:55:18;100847.7461;;;;
44734;BME280;30462;52.446;-1.930;2023-04-05T00:56:18;100845.0625;;;;
44734;BME280;30462;52.446;-1.930;2023-04-05T00:57:18;100846.5234;;;;
44734;BME280;30462;52.446;-1.930;2023-04-05T00:58:18;100838.6797;;;;
44734;BME280;30462;52.446;-1.930;2023-04-05T00:59:18;100843.2227;;;;
44734;BME280;30462;52.446;-1.930;2023-04-05T01:00:18;100838.5547;;;;
44734;BME280;30462;52.446;-1.930;2023-04-05T01:01:18;100839.7461;;;;
44734;BME280;30462;52.446;-1.930;2023-04-05T01:02:19;100837.0273;;;;
44734;BME280;30462;52.446;-1.930;2023-04-05T01:03:18;100838.3867;;;;
44734;BME280;30462;52.446;-1.930;2023-04-05T01:04:18;100833.6914;;;;
44734;BME280;30462;52.446;-1.930;2023-04-05T01:05:24;100833.8711;;;;
44734;BME280;30462;52.446;-1.930;2023-04-05T01:06:21;100838.3945;;;;
44734;BME280;30462;52.446;-1.930;2023-04-05T01:07:20;100833.5664;;;;
44734;BME280;30462;52.446;-1.930;2023-04-05T01:08:31;100835.9766;;;;
44734;BME280;30462;52.446;-1.930;2023-04-05T01:10:18;100831.0352;;;;
44734;BME280;30462;52.446;-1.930;2023-04-05T01:11:18;100832.1289;;;;
44734;BME280;30462;52.446;-1.930;2023-04-05T01:12:18;100833.9961;;;;
44734;BME280;30462;52.446;-1.930;2023-04-05T01:13:18;100828.5273;;;;
44734;BME280;30462;52.446;-1.930;2023-04-05T01:14:18;100829.1563;;;;
44734;BME280;30462;52.446;-1.930;2023-04-05T01:15:18;100831.5352;;;;
44734;BME280;30462;52.446;-1.930;2023-04-05T01:16:18;100824.6172;;;;
44734;BME280;30462;52.446;-1.930;2023-04-05T01:17:19;100822.2813;;;;
44734;BME280;30462;52.446;-1.930;2023-04-05T01:18:17;100820.6563;;;;
44734;BME280;30462;52.446;-1.930;2023-04-05T01:19:17;100820.7227;;;;
44734;BME280;30462;52.446;-1.930;2023-04-05T01:20:18;100818.0859;;;;
44734;BME280;30462;52.446;-1.930;2023-04-05T01:24:23;100816.1875;;;;
44734;BME280;30462;52.446;-1.930;2023-04-05T01:27:19;100809.4648;;;;
44734;BME280;30462;52.446;-1.930;2023-04-05T01:30:20;100813.0977;;;;
44734;BME280;30462;52.446;-1.930;2023-04-05T01:31:19;100818.2148;;;;
44734;BME280;30462;52.446;-1.930;2023-04-05T01:33:20;100817.3086;;;;
44734;BME280;30462;52.446;-1.930;2023-04-05T01:34:21;100815.9141;;;;
44734;BME280;30462;52.446;-1.930;2023-04-05T01:35:24;100815.1602;;;;
44734;BME280;30462;52.446;-1.930;2023-04-05T01:36:19;100818.3789;;;;
44734;BME280;30462;52.446;-1.930;2023-04-05T01:37:19;100812.7227;;;;
44734;BME280;30462;52.446;-1.930;2023-04-05T01:38:18;100814.0742;;;;
44734;BME280;30462;52.446;-1.930;2023-04-05T01:39:19;100810.6289;;;;
44734;BME280;30462;52.446;-1.930;2023-04-05T01:40:18;100811.9648;;;;
44734;BME280;30462;52.446;-1.930;2023-04-05T01:41:18;100812.875;;;;
44734;BME280;30462;52.446;-1.930;2023-04-05T01:43:18;100808.8164;;;;
44734;BME280;30462;52.446;-1.930;2023-04-05T01:44:18;100813.0898;;;;
44734;BME280;30462;52.446;-1.930;2023-04-05T01:45:18;100811.25;;;;
44734;BME280;30462;52.446;-1.930;2023-04-05T01:46:18;100810.8555;;;;
44734;BME280;30462;52.446;-1.930;2023-04-05T01:47:18;100809.3906;;;;
44734;BME280;30462;52.446;-1.930;2023-04-05T01:48:18;100808.8086;;;;
44734;BME280;30462;52.446;-1.930;2023-04-05T01:49:18;100805.9336;;;;
44734;BME280;30462;52.446;-1.930;2023-04-05T01:50:18;100803.8633;;;;
44734;BME280;30462;52.446;-1.930;2023-04-05T01:51:17;100802.1328;;;;
44734;BME280;30462;52.446;-1.930;2023-04-05T01:52:18;100803.2773;;;;
44734;BME280;30462;52.446;-1.930;2023-04-05T01:53:18;100799.9609;;;;
44734;BME280;30462;52.446;-1.930;2023-04-05T01:54:18;100799.4492;;;;
44734;BME280;30462;52.446;-1.930;2023-04-05T01:55:18;100802.4023;;;;
44734;BME280;30462;52.446;-1.930;2023-04-05T01:56:18;100801.7617;;;;
44734;BME280;30462;52.446;-1.930;2023-04-05T01:57:18;100798.7656;;;;
44734;BME280;30462;52.446;-1.930;2023-04-05T01:58:18;100796.2188;;;;
44734;BME280;30462;52.446;-1.930;2023-04-05T01:59:17;100793.8359;;;;
44734;BME280;30462;52.446;-1.930;2023-04-05T02:00:18;100796.6914;;;;
44734;BME280;30462;52.446;-1.930;2023-04-05T02:01:18;100794.5625;;;;
44734;BME280;30462;52.446;-1.930;2023-04-05T02:02:18;100793.4648;;;;
44734;BME280;30462;52.446;-1.930;2023-04-05T02:03:18;100792.1875;;;;
44734;BME280;30462;52.446;-1.930;2023-04-05T02:04:18;100794.8008;;;;
44734;BME280;30462;52.446;-1.930;2023-04-05T02:05:18;100793.1367;;;;
44734;BME280;30462;52.446;-1.930;2023-04-05T02:06:18;100792.5508;;;;
44734;BME280;30462;52.446;-1.930;2023-04-05T02:07:18;100794.6992;;;;
44734;BME280;30462;52.446;-1.930;2023-04-05T02:08:18;100788.8867;;;;
44734;BME280;30462;52.446;-1.930;2023-04-05T02:09:18;100790.6641;;;;
44734;BME280;30462;52.446;-1.930;2023-04-05T02:10:18;100791.7148;;;;
44734;BME280;30462;52.446;-1.930;2023-04-05T02:11:18;100789.207;;;;
44734;BME280;30462;52.446;-1.930;2023-04-05T02:12:18;100789.5195;;;;
44734;BME280;30462;52.446;-1.930;2023-04-05T02:13:18;100789.9141;;;;
44734;BME280;30462;52.446;-1.930;2023-04-05T02:14:18;100791.3047;;;;
44734;BME280;30462;52.446;-1.930;2023-04-05T02:15:18;100788.9297;;;;
44734;BME280;30462;52.446;-1.930;2023-04-05T02:16:18;100791.0742;;;;
44734;BME280;30462;52.446;-1.930;2023-04-05T02:17:18;100788.6719;;;;
44734;BME280;30462;52.446;-1.930;2023-04-05T02:18:18;100790.2188;;;;
44734;BME280;30462;52.446;-1.930;2023-04-05T02:19:18;100782.8828;;;;
44734;BME280;30462;52.446;-1.930;2023-04-05T02:20:18;100785.3359;;;;
44734;BME280;30462;52.446;-1.930;2023-04-05T02:21:18;100782.7656;;;;
44734;BME280;30462;52.446;-1.930;2023-04-05T02:22:18;100787.3438;;;;
44734;BME280;30462;52.446;-1.930;2023-04-05T02:23:18;100781.2969;;;;
44734;BME280;30462;52.446;-1.930;2023-04-05T02:24:18;100781.6953;;;;
44734;BME280;30462;52.446;-1.930;2023-04-05T02:25:18;100781.7969;;;;
44734;BME280;30462;52.446;-1.930;2023-04-05T02:26:18;100780.7813;;;;
44734;BME280;30462;52.446;-1.930;2023-04-05T02:27:18;100778.6914;;;;
44734;BME280;30462;52.446;-1.930;2023-04-05T02:28:19;100773.8086;;;;
44734;BME280;30462;52.446;-1.930;2023-04-05T02:29:18;100774.418;;;;
44734;BME280;30462;52.446;-1.930;2023-04-05T02:30:18;100774.1406;;;;
44734;BME280;30462;52.446;-1.930;2023-04-05T02:31:18;100773.375;;;;
44734;BME280;30462;52.446;-1.930;2023-04-05T02:32:18;100770.5508;;;;
44734;BME280;30462;52.446;-1.930;2023-04-05T02:33:18;100772.4883;;;;
44734;BME280;30462;52.446;-1.930;2023-04-05T02:34:18;100772.9844;;;;
44734;BME280;30462;52.446;-1.930;2023-04-05T02:35:18;100769.8516;;;;
44734;BME280;30462;52.446;-1.930;2023-04-05T02:36:18;100771.0156;;;;
44734;BME280;30462;52.446;-1.930;2023-04-05T02:37:18;100768.1484;;;;
44734;BME280;30462;52.446;-1.930;2023-04-05T02:38:18;100766.3242;;;;
44734;BME280;30462;52.446;-1.930;2023-04-05T02:39:18;100766.1094;;;;
44734;BME280;30462;52.446;-1.930;2023-04-05T02:40:18;100763.543;;;;
44734;BME280;30462;52.446;-1.930;2023-04-05T02:41:18;100762.8516;;;;
44734;BME280;30462;52.446;-1.930;2023-04-05T02:42:18;100754.8633;;;;
44734;BME280;30462;52.446;-1.930;2023-04-05T02:43:18;100757.7852;;;;
44734;BME280;30462;52.446;-1.930;2023-04-05T02:44:18;100753.4883;;;;
44734;BME280;30462;52.446;-1.930;2023-04-05T02:45:18;100752.7656;;;;
44734;BME280;30462;52.446;-1.930;2023-04-05T02:46:18;100752.5117;;;;
44734;BME280;30462;52.446;-1.930;2023-04-05T02:47:18;100751.3008;;;;
44734;BME280;30462;52.446;-1.930;2023-04-05T02:48:18;100744.6641;;;;
44734;BME280;30462;52.446;-1.930;2023-04-05T02:49:18;100749.2656;;;;
44734;BME280;30462;52.446;-1.930;2023-04-05T02:50:18;100750.1094;;;;
44734;BME280;30462;52.446;-1.930;2023-04-05T02:51:18;100750.8008;;;;
44734;BME280;30462;52.446;-1.930;2023-04-05T02:52:18;100753.0391;;;;
44734;BME280;30462;52.446;-1.930;2023-04-05T02:53:18;100747.3945;;;;
44734;BME280;30462;52.446;-1.930;2023-04-05T02:54:18;100748.0039;;;;
44734;BME280;30462;52.446;-1.930;2023-04-05T02:55:18;100749.875;;;;
44734;BME280;30462;52.446;-1.930;2023-04-05T02:56:18;100749.8711;;;;
44734;BME280;30462;52.446;-1.930;2023-04-05T02:57:18;100747.9375;;;;
44734;BME280;30462;52.446;-1.930;2023-04-05T02:58:18;100748.5156;;;;
44734;BME280;30462;52.446;-1.930;2023-04-05T02:59:17;100746.6055;;;;
44734;BME280;30462;52.446;-1.930;2023-04-05T03:00:19;100747.1875;;;;
44734;BME280;30462;52.446;-1.930;2023-04-05T03:01:18;100747.4375;;;;
44734;BME280;30462;52.446;-1.930;2023-04-05T03:02:18;100750.0547;;;;
44734;BME280;30462;52.446;-1.930;2023-04-05T03:03:18;100745.6641;;;;
44734;BME280;30462;52.446;-1.930;2023-04-05T03:04:18;100745.7422;;;;
44734;BME280;30462;52.446;-1.930;2023-04-05T03:05:18;100741.3086;;;;
44734;BME280;30462;52.446;-1.930;2023-04-05T03:06:18;100740.5391;;;;
44734;BME280;30462;52.446;-1.930;2023-04-05T03:07:18;100744.832;;;;
44734;BME280;30462;52.446;-1.930;2023-04-05T03:08:18;100739.75;;;;
44734;BME280;30462;52.446;-1.930;2023-04-05T03:09:18;100740.7891;;;;
44734;BME280;30462;52.446;-1.930;2023-04-05T03:10:20;100739.5938;;;;
44734;BME280;30462;52.446;-1.930;2023-04-05T03:11:18;100737.0234;;;;
44734;BME280;30462;52.446;-1.930;2023-04-05T03:12:18;100740.1797;;;;
44734;BME280;30462;52.446;-1.930;2023-04-05T03:13:18;100736.3906;;;;
44734;BME280;30462;52.446;-1.930;2023-04-05T03:14:18;100737.7891;;;;
44734;BME280;30462;52.446;-1.930;2023-04-05T03:15:18;100734.2813;;;;
44734;BME280;30462;52.446;-1.930;2023-04-05T03:16:18;100740.668;;;;
44734;BME280;30462;52.446;-1.930;2023-04-05T03:17:18;100736.5977;;;;
44734;BME280;30462;52.446;-1.930;2023-04-05T03:18:17;100739.9922;;;;
44734;BME280;30462;52.446;-1.930;2023-04-05T03:19:17;100740.4609;;;;
44734;BME280;30462;52.446;-1.930;2023-04-05T03:20:18;100739.6211;;;;
44734;BME280;30462;52.446;-1.930;2023-04-05T03:21:18;100738.6875;;;;
44734;BME280;30462;52.446;-1.930;2023-04-05T03:22:18;100737.9883;;;;
44734;BME280;30462;52.446;-1.930;2023-04-05T03:23:18;100740.1016;;;;
44734;BME280;30462;52.446;-1.930;2023-04-05T03:24:18;100737.7891;;;;
44734;BME280;30462;52.446;-1.930;2023-04-05T03:25:18;100738.5859;;;;
44734;BME280;30462;52.446;-1.930;2023-04-05T03:26:18;100739.4297;;;;
44734;BME280;30462;52.446;-1.930;2023-04-05T03:27:18;100736.6641;;;;
44734;BME280;30462;52.446;-1.930;2023-04-05T03:28:18;100733.8281;;;;
44734;BME280;30462;52.446;-1.930;2023-04-05T03:29:18;100732.0703;;;;
44734;BME280;30462;52.446;-1.930;2023-04-05T03:30:19;100731.2852;;;;
44734;BME280;30462;52.446;-1.930;2023-04-05T03:31:18;100732.4766;;;;
44734;BME280;30462;52.446;-1.930;2023-04-05T03:32:18;100728.2578;;;;
44734;BME280;30462;52.446;-1.930;2023-04-05T03:33:18;100728.5039;;;;
44734;BME280;30462;52.446;-1.930;2023-04-05T03:34:18;100726.3125;;;;
44734;BME280;30462;52.446;-1.930;2023-04-05T03:35:18;100728.5313;;;;
44734;BME280;30462;52.446;-1.930;2023-04-05T03:36:18;100728.957;;;;
44734;BME280;30462;52.446;-1.930;2023-04-05T03:37:18;100724.8203;;;;
44734;BME280;30462;52.446;-1.930;2023-04-05T03:38:18;100730.1406;;;;
44734;BME280;30462;52.446;-1.930;2023-04-05T03:39:18;100728.2305;;;;
44734;BME280;30462;52.446;-1.930;2023-04-05T03:40:17;100725.5039;;;;
44734;BME280;30462;52.446;-1.930;2023-04-05T03:41:18;100725.1523;;;;
44734;BME280;30462;52.446;-1.930;2023-04-05T03:42:18;100724.7734;;;;
44734;BME280;30462;52.446;-1.930;2023-04-05T03:43:18;100725.1484;;;;
44734;BME280;30462;52.446;-1.930;2023-04-05T03:44:18;100723.9609;;;;
44734;BME280;30462;52.446;-1.930;2023-04-05T03:45:18;100726.0156;;;;
44734;BME280;30462;52.446;-1.930;2023-04-05T03:46:18;100719.668;;;;
44734;BME280;30462;52.446;-1.930;2023-04-05T03:47:18;100719.3672;;;;
44734;BME280;30462;52.446;-1.930;2023-04-05T03:48:18;100717.9102;;;;
44734;BME280;30462;52.446;-1.930;2023-04-05T03:49:18;100716.793;;;;
44734;BME280;30462;52.446;-1.930;2023-04-05T03:50:18;100716.3477;;;;
44734;BME280;30462;52.446;-1.930;2023-04-05T03:51:18;100711.9375;;;;
44734;BME280;30462;52.446;-1.930;2023-04-05T03:52:18;100714.5313;;;;
44734;BME280;30462;52.446;-1.930;2023-04-05T03:53:18;100712.7188;;;;
44734;BME280;30462;52.446;-1.930;2023-04-05T03:54:18;100711.4922;;;;
44734;BME280;30462;52.446;-1.930;2023-04-05T03:55:18;100711.0664;;;;
44734;BME280;30462;52.446;-1.930;2023-04-05T03:56:18;100710.5156;;;;
44734;BME280;30462;52.446;-1.930;2023-04-05T03:57:18;100711.3008;;;;
44734;BME280;30462;52.446;-1.930;2023-04-05T03:58:18;100713.9766;;;;
44734;BME280;30462;52.446;-1.930;2023-04-05T03:59:18;100714.5938;;;;
44734;BME280;30462;52.446;-1.930;2023-04-05T04:00:18;100711.2656;;;;
44734;BME280;30462;52.446;-1.930;2023-04-05T04:01:18;100713.1016;;;;
44734;BME280;30462;52.446;-1.930;2023-04-05T04:02:18;100711.2695;;;;
44734;BME280;30462;52.446;-1.930;2023-04-05T04:03:18;100710.1211;;;;
44734;BME280;30462;52.446;-1.930;2023-04-05T04:04:18;100707.5977;;;;
44734;BME280;30462;52.446;-1.930;2023-04-05T04:05:18;100704.5234;;;;
44734;BME280;30462;52.446;-1.930;2023-04-05T04:06:18;100701.6523;;;;
44734;BME280;30462;52.446;-1.930;2023-04-05T04:07:18;100700.3242;;;;
44734;BME280;30462;52.446;-1.930;2023-04-05T04:08:18;100702.5859;;;;
44734;BME280;30462;52.446;-1.930;2023-04-05T04:09:18;100699.9063;;;;
44734;BME280;30462;52.446;-1.930;2023-04-05T04:10:18;100697.1523;;;;
44734;BME280;30462;52.446;-1.930;2023-04-05T04:11:18;100698.2266;;;;
44734;BME280;30462;52.446;-1.930;2023-04-05T04:12:18;100697.9453;;;;
44734;BME280;30462;52.446;-1.930;2023-04-05T04:13:18;100696.8125;;;;
44734;BME280;30462;52.446;-1.930;2023-04-05T04:14:18;100698.7422;;;;
44734;BME280;30462;52.446;-1.930;2023-04-05T04:15:18;100699.3672;;;;
44734;BME280;30462;52.446;-1.930;2023-04-05T04:16:18;100696.3828;;;;
44734;BME280;30462;52.446;-1.930;2023-04-05T04:18:18;100693.3711;;;;
44734;BME280;30462;52.446;-1.930;2023-04-05T04:19:18;100692.582;;;;
44734;BME280;30462;52.446;-1.930;2023-04-05T04:20:18;100690.5352;;;;
44734;BME280;30462;52.446;-1.930;2023-04-05T04:21:18;100690.2773;;;;
44734;BME280;30462;52.446;-1.930;2023-04-05T04:22:18;100689.293;;;;
44734;BME280;30462;52.446;-1.930;2023-04-05T04:23:18;100693.3711;;;;
44734;BME280;30462;52.446;-1.930;2023-04-05T04:24:18;100693.4609;;;;
44734;BME280;30462;52.446;-1.930;2023-04-05T04:25:18;100692.0234;;;;
44734;BME280;30462;52.446;-1.930;2023-04-05T04:26:18;100695.1445;;;;
44734;BME280;30462;52.446;-1.930;2023-04-05T04:27:18;100697.2188;;;;
44734;BME280;30462;52.446;-1.930;2023-04-05T04:28:18;100697.1992;;;;
44734;BME280;30462;52.446;-1.930;2023-04-05T04:29:18;100689.6719;;;;
44734;BME280;30462;52.446;-1.930;2023-04-05T04:30:18;100694.8398;;;;
44734;BME280;30462;52.446;-1.930;2023-04-05T04:31:18;100694.1563;;;;
44734;BME280;30462;52.446;-1.930;2023-04-05T04:32:18;100694.6719;;;;
44734;BME280;30462;52.446;-1.930;2023-04-05T04:33:17;100689.4805;;;;
44734;BME280;30462;52.446;-1.930;2023-04-05T04:34:18;100691.1602;;;;
44734;BME280;30462;52.446;-1.930;2023-04-05T04:35:19;100690.1641;;;;
44734;BME280;30462;52.446;-1.930;2023-04-05T04:36:18;100694.0938;;;;
44734;BME280;30462;52.446;-1.930;2023-04-05T04:37:18;100689.1445;;;;
44734;BME280;30462;52.446;-1.930;2023-04-05T04:38:18;100692.4805;;;;
44734;BME280;30462;52.446;-1.930;2023-04-05T04:39:18;100692.0898;;;;
44734;BME280;30462;52.446;-1.930;2023-04-05T04:40:18;100688.7344;;;;
44734;BME280;30462;52.446;-1.930;2023-04-05T04:41:18;100689.4336;;;;
44734;BME280;30462;52.446;-1.930;2023-04-05T04:42:18;100691.3438;;;;
44734;BME280;30462;52.446;-1.930;2023-04-05T04:43:18;100688.9336;;;;
44734;BME280;30462;52.446;-1.930;2023-04-05T04:44:18;100693.0273;;;;
44734;BME280;30462;52.446;-1.930;2023-04-05T04:45:18;100692.4492;;;;
44734;BME280;30462;52.446;-1.930;2023-04-05T04:46:18;100691.0625;;;;
44734;BME280;30462;52.446;-1.930;2023-04-05T04:47:18;100686.7109;;;;
44734;BME280;30462;52.446;-1.930;2023-04-05T04:48:17;100689.1133;;;;
44734;BME280;30462;52.446;-1.930;2023-04-05T04:49:18;100690.9375;;;;
44734;BME280;30462;52.446;-1.930;2023-04-05T04:50:19;100686.9883;;;;
44734;BME280;30462;52.446;-1.930;2023-04-05T04:51:18;100687.6523;;;;
44734;BME280;30462;52.446;-1.930;2023-04-05T04:52:18;100684.8945;;;;
44734;BME280;30462;52.446;-1.930;2023-04-05T04:53:17;100686.2734;;;;
44734;BME280;30462;52.446;-1.930;2023-04-05T04:54:18;100686.957;;;;
44734;BME280;30462;52.446;-1.930;2023-04-05T04:55:18;100688.8281;;;;
44734;BME280;30462;52.446;-1.930;2023-04-05T04:56:18;100682.7813;;;;
44734;BME280;30462;52.446;-1.930;2023-04-05T04:57:18;100683.625;;;;
44734;BME280;30462;52.446;-1.930;2023-04-05T04:58:18;100681.3359;;;;
44734;BME280;30462;52.446;-1.930;2023-04-05T04:59:18;100682.9961;;;;
44734;BME280;30462;52.446;-1.930;2023-04-05T05:00:18;100678.8242;;;;
44734;BME280;30462;52.446;-1.930;2023-04-05T05:01:17;100681.7578;;;;
44734;BME280;30462;52.446;-1.930;2023-04-05T05:03:18;100675.4922;;;;
44734;BME280;30462;52.446;-1.930;2023-04-05T05:04:18;100675.6523;;;;
44734;BME280;30462;52.446;-1.930;2023-04-05T05:05:18;100673.3477;;;;
44734;BME280;30462;52.446;-1.930;2023-04-05T05:06:18;100670.9531;;;;
44734;BME280;30462;52.446;-1.930;2023-04-05T05:07:18;100669.5664;;;;
44734;BME280;30462;52.446;-1.930;2023-04-05T05:08:18;100671.6484;;;;
44734;BME280;30462;52.446;-1.930;2023-04-05T05:09:18;100669.9297;;;;
44734;BME280;30462;52.446;-1.930;2023-04-05T05:10:18;100669.9297;;;;
44734;BME280;30462;52.446;-1.930;2023-04-05T05:11:18;100672.7031;;;;
44734;BME280;30462;52.446;-1.930;2023-04-05T05:12:18;100670.3945;;;;
44734;BME280;30462;52.446;-1.930;2023-04-05T05:13:18;100667.3359;;;;
44734;BME280;30462;52.446;-1.930;2023-04-05T05:14:18;100668.0664;;;;
44734;BME280;30462;52.446;-1.930;2023-04-05T05:15:18;100664.2344;;;;
44734;BME280;30462;52.446;-1.930;2023-04-05T05:16:18;100665.0781;;;;
44734;BME280;30462;52.446;-1.930;2023-04-05T05:17:18;100667.2031;;;;
44734;BME280;30462;52.446;-1.930;2023-04-05T05:18:18;100663.207;;;;
44734;BME280;30462;52.446;-1.930;2023-04-05T05:19:18;100664.8906;;;;
44734;BME280;30462;52.446;-1.930;2023-04-05T05:20:18;100663.5195;;;;
44734;BME280;30462;52.446;-1.930;2023-04-05T05:21:18;100661.6445;;;;
44734;BME280;30462;52.446;-1.930;2023-04-05T05:22:18;100662.7422;;;;
44734;BME280;30462;52.446;-1.930;2023-04-05T05:23:18;100660.2734;;;;
44734;BME280;30462;52.446;-1.930;2023-04-05T05:24:18;100659.6016;;;;
44734;BME280;30462;52.446;-1.930;2023-04-05T05:25:18;100659.5781;;;;
44734;BME280;30462;52.446;-1.930;2023-04-05T05:26:18;100659.5703;;;;
44734;BME280;30462;52.446;-1.930;2023-04-05T05:27:18;100656.6602;;;;
44734;BME280;30462;52.446;-1.930;2023-04-05T05:28:18;100655.8906;;;;
44734;BME280;30462;52.446;-1.930;2023-04-05T05:29:18;100659.9648;;;;
44734;BME280;30462;52.446;-1.930;2023-04-05T05:30:18;100655.7695;;;;
44734;BME280;30462;52.446;-1.930;2023-04-05T05:31:18;100658.8984;;;;
44734;BME280;30462;52.446;-1.930;2023-04-05T05:32:18;100657.0117;;;;
44734;BME280;30462;52.446;-1.930;2023-04-05T05:33:18;100658.0781;;;;
44734;BME280;30462;52.446;-1.930;2023-04-05T05:34:18;100663.4688;;;;
44734;BME280;30462;52.446;-1.930;2023-04-05T05:35:18;100658.8281;;;;
44734;BME280;30462;52.446;-1.930;2023-04-05T05:36:18;100659.4805;;;;
44734;BME280;30462;52.446;-1.930;2023-04-05T05:37:18;100663.4375;;;;
44734;BME280;30462;52.446;-1.930;2023-04-05T05:38:18;100660.9688;;;;
44734;BME280;30462;52.446;-1.930;2023-04-05T05:39:18;100660.1367;;;;
44734;BME280;30462;52.446;-1.930;2023-04-05T05:40:18;100661.6719;;;;
44734;BME280;30462;52.446;-1.930;2023-04-05T05:41:18;100658.3398;;;;
44734;BME280;30462;52.446;-1.930;2023-04-05T05:42:18;100660.8359;;;;
44734;BME280;30462;52.446;-1.930;2023-04-05T05:43:18;100659.1328;;;;
44734;BME280;30462;52.446;-1.930;2023-04-05T05:44:18;100656.6836;;;;
44734;BME280;30462;52.446;-1.930;2023-04-05T05:45:18;100658.1523;;;;
44734;BME280;30462;52.446;-1.930;2023-04-05T05:46:19;100658.9453;;;;
44734;BME280;30462;52.446;-1.930;2023-04-05T05:47:17;100660.1055;;;;
44734;BME280;30462;52.446;-1.930;2023-04-05T05:48:17;100661.3711;;;;
44734;BME280;30462;52.446;-1.930;2023-04-05T05:49:18;100659.6914;;;;
44734;BME280;30462;52.446;-1.930;2023-04-05T05:50:18;100660.3398;;;;
44734;BME280;30462;52.446;-1.930;2023-04-05T05:51:18;100662.4609;;;;
44734;BME280;30462;52.446;-1.930;2023-04-05T05:52:18;100659.8828;;;;
44734;BME280;30462;52.446;-1.930;2023-04-05T05:53:17;100656.8945;;;;
44734;BME280;30462;52.446;-1.930;2023-04-05T05:54:17;100655.0898;;;;
44734;BME280;30462;52.446;-1.930;2023-04-05T05:55:18;100657.7539;;;;
44734;BME280;30462;52.446;-1.930;2023-04-05T05:56:18;100656.1836;;;;
44734;BME280;30462;52.446;-1.930;2023-04-05T05:57:18;100659.457;;;;